sensor_id;sensor_type;location;lat;lon;timestamp;P1;durP1;ratioP1;P2;durP2;ratioP2
11893;SDS011;6006;49.696;8.662;2024-02-16T00:01:59;3.23;;;1.37;;
11893;SDS011;6006;49.696;8.662;2024-02-16T00:04:27;2.20;;;1.70;;
11893;SDS011;6006;49.696;8.662;2024-02-16T00:06:54;1.97;;;1.77;;
11893;SDS011;6006;49.696;8.662;2024-02-16T00:09:20;2.50;;;1.37;;
11893;SDS011;6006;49.696;8.662;2024-02-16T00:11:49;1.20;;;1.17;;
11893;SDS011;6006;49.696;8.662;2024-02-16T00:14:17;0.90;;;0.90;;
11893;SDS011;6006;49.696;8.662;2024-02-16T00:16:45;0.70;;;0.70;;
11893;SDS011;6006;49.696;8.662;2024-02-16T00:19:12;0.90;;;0.90;;
11893;SDS011;6006;49.696;8.662;2024-02-16T00:21:38;1.43;;;1.13;;
11893;SDS011;6006;49.696;8.662;2024-02-16T00:24:07;1.47;;;1.17;;
11893;SDS011;6006;49.696;8.662;2024-02-16T00:26:34;2.03;;;1.37;;
11893;SDS011;6006;49.696;8.662;2024-02-16T00:29:02;1.00;;;1.00;;
11893;SDS011;6006;49.696;8.662;2024-02-16T00:31:29;2.23;;;1.83;;
11893;SDS011;6006;49.696;8.662;2024-02-16T00:33:56;1.30;;;1.20;;
11893;SDS011;6006;49.696;8.662;2024-02-16T00:36:23;1.00;;;0.97;;
11893;SDS011;6006;49.696;8.662;2024-02-16T00:38:52;1.67;;;1.40;;
11893;SDS011;6006;49.696;8.662;2024-02-16T00:41:19;1.20;;;1.10;;
11893;SDS011;6006;49.696;8.662;2024-02-16T00:43:47;2.10;;;1.10;;
11893;SDS011;6006;49.696;8.662;2024-02-16T00:46:15;1.37;;;0.87;;
11893;SDS011;6006;49.696;8.662;2024-02-16T00:48:42;3.20;;;1.83;;
11893;SDS011;6006;49.696;8.662;2024-02-16T00:51:09;3.07;;;2.40;;
11893;SDS011;6006;49.696;8.662;2024-02-16T00:53:36;3.83;;;2.23;;
11893;SDS011;6006;49.696;8.662;2024-02-16T00:56:03;1.80;;;1.70;;
11893;SDS011;6006;49.696;8.662;2024-02-16T00:58:32;2.77;;;1.97;;
11893;SDS011;6006;49.696;8.662;2024-02-16T01:00:59;1.70;;;1.60;;
11893;SDS011;6006;49.696;8.662;2024-02-16T01:03:27;2.87;;;1.70;;
11893;SDS011;6006;49.696;8.662;2024-02-16T01:05:54;1.87;;;1.63;;
11893;SDS011;6006;49.696;8.662;2024-02-16T01:08:21;1.90;;;1.70;;
11893;SDS011;6006;49.696;8.662;2024-02-16T01:10:48;2.70;;;1.67;;
11893;SDS011;6006;49.696;8.662;2024-02-16T01:13:15;4.97;;;2.07;;
11893;SDS011;6006;49.696;8.662;2024-02-16T01:15:42;3.03;;;2.07;;
11893;SDS011;6006;49.696;8.662;2024-02-16T01:18:10;3.60;;;2.00;;
11893;SDS011;6006;49.696;8.662;2024-02-16T01:20:38;2.70;;;1.67;;
11893;SDS011;6006;49.696;8.662;2024-02-16T01:23:05;3.20;;;2.20;;
11893;SDS011;6006;49.696;8.662;2024-02-16T01:25:32;2.23;;;2.03;;
11893;SDS011;6006;49.696;8.662;2024-02-16T01:27:59;3.53;;;1.63;;
11893;SDS011;6006;49.696;8.662;2024-02-16T01:30:26;2.97;;;1.87;;
11893;SDS011;6006;49.696;8.662;2024-02-16T01:32:53;3.73;;;1.53;;
11893;SDS011;6006;49.696;8.662;2024-02-16T01:35:20;3.37;;;1.60;;
11893;SDS011;6006;49.696;8.662;2024-02-16T01:37:48;2.13;;;1.53;;
11893;SDS011;6006;49.696;8.662;2024-02-16T01:40:15;2.77;;;1.93;;
11893;SDS011;6006;49.696;8.662;2024-02-16T01:42:42;3.60;;;1.67;;
11893;SDS011;6006;49.696;8.662;2024-02-16T01:45:10;2.20;;;1.80;;
11893;SDS011;6006;49.696;8.662;2024-02-16T01:47:38;2.13;;;1.20;;
11893;SDS011;6006;49.696;8.662;2024-02-16T01:50:08;2.57;;;1.77;;
11893;SDS011;6006;49.696;8.662;2024-02-16T01:52:35;2.67;;;1.70;;
11893;SDS011;6006;49.696;8.662;2024-02-16T01:55:04;4.07;;;1.50;;
11893;SDS011;6006;49.696;8.662;2024-02-16T01:57:34;2.50;;;1.33;;
11893;SDS011;6006;49.696;8.662;2024-02-16T02:00:01;2.13;;;1.30;;
11893;SDS011;6006;49.696;8.662;2024-02-16T02:02:30;1.50;;;1.40;;
11893;SDS011;6006;49.696;8.662;2024-02-16T02:04:57;2.37;;;1.37;;
11893;SDS011;6006;49.696;8.662;2024-02-16T02:07:24;2.27;;;1.63;;
11893;SDS011;6006;49.696;8.662;2024-02-16T02:09:52;2.33;;;1.40;;
11893;SDS011;6006;49.696;8.662;2024-02-16T02:12:21;1.60;;;1.50;;
11893;SDS011;6006;49.696;8.662;2024-02-16T02:14:48;2.23;;;1.20;;
11893;SDS011;6006;49.696;8.662;2024-02-16T02:17:15;2.03;;;1.20;;
11893;SDS011;6006;49.696;8.662;2024-02-16T02:19:43;3.07;;;1.40;;
11893;SDS011;6006;49.696;8.662;2024-02-16T02:22:14;0.83;;;0.83;;
11893;SDS011;6006;49.696;8.662;2024-02-16T02:24:42;1.37;;;1.10;;
11893;SDS011;6006;49.696;8.662;2024-02-16T02:27:09;1.27;;;1.17;;
11893;SDS011;6006;49.696;8.662;2024-02-16T02:29:36;2.70;;;1.40;;
11893;SDS011;6006;49.696;8.662;2024-02-16T02:32:03;2.40;;;1.73;;
11893;SDS011;6006;49.696;8.662;2024-02-16T02:34:31;1.83;;;1.10;;
11893;SDS011;6006;49.696;8.662;2024-02-16T02:36:58;1.60;;;1.20;;
11893;SDS011;6006;49.696;8.662;2024-02-16T02:39:27;1.30;;;1.13;;
11893;SDS011;6006;49.696;8.662;2024-02-16T02:41:54;1.23;;;1.13;;
11893;SDS011;6006;49.696;8.662;2024-02-16T02:44:22;1.37;;;1.27;;
11893;SDS011;6006;49.696;8.662;2024-02-16T02:46:50;1.00;;;0.90;;
11893;SDS011;6006;49.696;8.662;2024-02-16T02:49:17;1.63;;;1.50;;
11893;SDS011;6006;49.696;8.662;2024-02-16T02:51:44;2.40;;;1.50;;
11893;SDS011;6006;49.696;8.662;2024-02-16T02:54:11;1.17;;;1.07;;
11893;SDS011;6006;49.696;8.662;2024-02-16T02:56:39;2.97;;;1.30;;
11893;SDS011;6006;49.696;8.662;2024-02-16T02:59:06;1.30;;;0.97;;
11893;SDS011;6006;49.696;8.662;2024-02-16T03:01:33;2.87;;;1.10;;
11893;SDS011;6006;49.696;8.662;2024-02-16T03:04:01;1.67;;;1.33;;
11893;SDS011;6006;49.696;8.662;2024-02-16T03:06:28;1.67;;;0.97;;
11893;SDS011;6006;49.696;8.662;2024-02-16T03:08:54;5.77;;;1.17;;
11893;SDS011;6006;49.696;8.662;2024-02-16T03:11:21;2.40;;;0.90;;
11893;SDS011;6006;49.696;8.662;2024-02-16T03:13:50;2.53;;;0.70;;
11893;SDS011;6006;49.696;8.662;2024-02-16T03:16:16;2.03;;;0.90;;
11893;SDS011;6006;49.696;8.662;2024-02-16T03:18:43;1.17;;;1.07;;
11893;SDS011;6006;49.696;8.662;2024-02-16T03:21:12;0.40;;;0.40;;
11893;SDS011;6006;49.696;8.662;2024-02-16T03:23:41;1.23;;;0.80;;
11893;SDS011;6006;49.696;8.662;2024-02-16T03:26:13;1.20;;;1.10;;
11893;SDS011;6006;49.696;8.662;2024-02-16T03:28:40;1.10;;;0.70;;
11893;SDS011;6006;49.696;8.662;2024-02-16T03:31:15;1.37;;;0.80;;
11893;SDS011;6006;49.696;8.662;2024-02-16T03:33:43;1.93;;;0.97;;
11893;SDS011;6006;49.696;8.662;2024-02-16T03:36:10;0.93;;;0.90;;
11893;SDS011;6006;49.696;8.662;2024-02-16T03:38:40;0.70;;;0.70;;
11893;SDS011;6006;49.696;8.662;2024-02-16T03:41:07;1.63;;;1.20;;
11893;SDS011;6006;49.696;8.662;2024-02-16T03:43:38;1.50;;;0.70;;
11893;SDS011;6006;49.696;8.662;2024-02-16T03:46:05;2.63;;;1.17;;
11893;SDS011;6006;49.696;8.662;2024-02-16T03:48:34;3.23;;;0.80;;
11893;SDS011;6006;49.696;8.662;2024-02-16T03:51:01;1.63;;;1.10;;
11893;SDS011;6006;49.696;8.662;2024-02-16T03:53:29;2.20;;;1.00;;
11893;SDS011;6006;49.696;8.662;2024-02-16T03:55:56;2.77;;;1.20;;
11893;SDS011;6006;49.696;8.662;2024-02-16T03:58:23;0.80;;;0.77;;
11893;SDS011;6006;49.696;8.662;2024-02-16T04:00:50;0.70;;;0.70;;
11893;SDS011;6006;49.696;8.662;2024-02-16T04:03:17;2.87;;;1.00;;
11893;SDS011;6006;49.696;8.662;2024-02-16T04:05:46;1.00;;;0.90;;
11893;SDS011;6006;49.696;8.662;2024-02-16T04:08:13;0.80;;;0.77;;
11893;SDS011;6006;49.696;8.662;2024-02-16T04:10:40;1.37;;;1.00;;
11893;SDS011;6006;49.696;8.662;2024-02-16T04:13:07;0.77;;;0.77;;
11893;SDS011;6006;49.696;8.662;2024-02-16T04:15:33;1.27;;;0.70;;
11893;SDS011;6006;49.696;8.662;2024-02-16T04:18:00;1.13;;;1.00;;
11893;SDS011;6006;49.696;8.662;2024-02-16T04:20:27;1.87;;;0.90;;
11893;SDS011;6006;49.696;8.662;2024-02-16T04:22:55;1.60;;;0.90;;
11893;SDS011;6006;49.696;8.662;2024-02-16T04:25:22;3.60;;;0.80;;
11893;SDS011;6006;49.696;8.662;2024-02-16T04:27:49;1.83;;;0.80;;
11893;SDS011;6006;49.696;8.662;2024-02-16T04:30:17;1.83;;;1.13;;
11893;SDS011;6006;49.696;8.662;2024-02-16T04:32:44;1.23;;;0.90;;
11893;SDS011;6006;49.696;8.662;2024-02-16T04:35:10;0.70;;;0.70;;
11893;SDS011;6006;49.696;8.662;2024-02-16T04:37:37;0.93;;;0.80;;
11893;SDS011;6006;49.696;8.662;2024-02-16T04:40:07;0.60;;;0.60;;
11893;SDS011;6006;49.696;8.662;2024-02-16T04:42:37;0.83;;;0.83;;
11893;SDS011;6006;49.696;8.662;2024-02-16T04:45:05;1.23;;;0.73;;
11893;SDS011;6006;49.696;8.662;2024-02-16T04:47:33;1.20;;;0.77;;
11893;SDS011;6006;49.696;8.662;2024-02-16T04:50:00;0.67;;;0.67;;
11893;SDS011;6006;49.696;8.662;2024-02-16T04:52:28;0.87;;;0.60;;
11893;SDS011;6006;49.696;8.662;2024-02-16T04:54:55;0.93;;;0.90;;
11893;SDS011;6006;49.696;8.662;2024-02-16T04:57:23;1.27;;;0.90;;
11893;SDS011;6006;49.696;8.662;2024-02-16T04:59:50;1.63;;;1.23;;
11893;SDS011;6006;49.696;8.662;2024-02-16T05:02:17;0.80;;;0.80;;
11893;SDS011;6006;49.696;8.662;2024-02-16T05:04:43;1.47;;;1.20;;
11893;SDS011;6006;49.696;8.662;2024-02-16T05:07:10;1.53;;;0.93;;
11893;SDS011;6006;49.696;8.662;2024-02-16T05:09:37;1.20;;;0.90;;
11893;SDS011;6006;49.696;8.662;2024-02-16T05:12:05;1.33;;;1.23;;
11893;SDS011;6006;49.696;8.662;2024-02-16T05:14:35;1.20;;;1.10;;
11893;SDS011;6006;49.696;8.662;2024-02-16T05:17:02;2.13;;;1.13;;
11893;SDS011;6006;49.696;8.662;2024-02-16T05:19:31;1.20;;;1.00;;
11893;SDS011;6006;49.696;8.662;2024-02-16T05:21:59;1.77;;;1.20;;
11893;SDS011;6006;49.696;8.662;2024-02-16T05:24:26;1.03;;;0.93;;
11893;SDS011;6006;49.696;8.662;2024-02-16T05:26:53;2.13;;;1.50;;
11893;SDS011;6006;49.696;8.662;2024-02-16T05:29:20;1.67;;;1.57;;
11893;SDS011;6006;49.696;8.662;2024-02-16T05:31:51;1.60;;;1.37;;
11893;SDS011;6006;49.696;8.662;2024-02-16T05:34:18;1.67;;;1.37;;
11893;SDS011;6006;49.696;8.662;2024-02-16T05:36:45;1.47;;;1.10;;
11893;SDS011;6006;49.696;8.662;2024-02-16T05:39:12;2.73;;;1.23;;
11893;SDS011;6006;49.696;8.662;2024-02-16T05:41:51;2.00;;;1.40;;
11893;SDS011;6006;49.696;8.662;2024-02-16T05:44:19;1.60;;;1.30;;
11893;SDS011;6006;49.696;8.662;2024-02-16T05:46:46;3.13;;;1.40;;
11893;SDS011;6006;49.696;8.662;2024-02-16T05:49:15;6.50;;;1.20;;
11893;SDS011;6006;49.696;8.662;2024-02-16T05:51:42;1.00;;;0.97;;
11893;SDS011;6006;49.696;8.662;2024-02-16T05:54:26;1.97;;;1.30;;
11893;SDS011;6006;49.696;8.662;2024-02-16T05:56:53;1.03;;;0.97;;
11893;SDS011;6006;49.696;8.662;2024-02-16T05:59:20;1.60;;;1.40;;
11893;SDS011;6006;49.696;8.662;2024-02-16T06:01:47;1.87;;;0.90;;
11893;SDS011;6006;49.696;8.662;2024-02-16T06:04:16;1.83;;;1.20;;
11893;SDS011;6006;49.696;8.662;2024-02-16T06:06:43;4.27;;;1.23;;
11893;SDS011;6006;49.696;8.662;2024-02-16T06:09:10;0.93;;;0.90;;
11893;SDS011;6006;49.696;8.662;2024-02-16T06:11:37;1.00;;;0.97;;
11893;SDS011;6006;49.696;8.662;2024-02-16T06:14:04;1.50;;;1.40;;
11893;SDS011;6006;49.696;8.662;2024-02-16T06:16:31;1.83;;;1.50;;
11893;SDS011;6006;49.696;8.662;2024-02-16T06:18:59;1.40;;;1.20;;
11893;SDS011;6006;49.696;8.662;2024-02-16T06:21:27;1.53;;;1.30;;
11893;SDS011;6006;49.696;8.662;2024-02-16T06:23:54;2.13;;;1.43;;
11893;SDS011;6006;49.696;8.662;2024-02-16T06:26:20;1.67;;;1.37;;
11893;SDS011;6006;49.696;8.662;2024-02-16T06:28:47;1.53;;;1.27;;
11893;SDS011;6006;49.696;8.662;2024-02-16T06:31:14;1.90;;;1.20;;
11893;SDS011;6006;49.696;8.662;2024-02-16T06:33:41;1.47;;;1.37;;
11893;SDS011;6006;49.696;8.662;2024-02-16T06:36:08;2.30;;;1.53;;
11893;SDS011;6006;49.696;8.662;2024-02-16T06:38:37;1.93;;;1.30;;
11893;SDS011;6006;49.696;8.662;2024-02-16T06:41:03;1.40;;;1.30;;
11893;SDS011;6006;49.696;8.662;2024-02-16T06:43:30;1.97;;;1.43;;
11893;SDS011;6006;49.696;8.662;2024-02-16T06:45:57;1.77;;;1.40;;
11893;SDS011;6006;49.696;8.662;2024-02-16T06:48:24;0.87;;;0.87;;
11893;SDS011;6006;49.696;8.662;2024-02-16T06:50:51;1.07;;;0.97;;
11893;SDS011;6006;49.696;8.662;2024-02-16T06:53:19;1.20;;;1.10;;
11893;SDS011;6006;49.696;8.662;2024-02-16T06:55:47;1.93;;;1.20;;
11893;SDS011;6006;49.696;8.662;2024-02-16T06:58:14;1.20;;;1.10;;
11893;SDS011;6006;49.696;8.662;2024-02-16T07:00:41;1.13;;;1.10;;
11893;SDS011;6006;49.696;8.662;2024-02-16T07:03:08;1.30;;;1.20;;
11893;SDS011;6006;49.696;8.662;2024-02-16T07:05:35;1.17;;;1.10;;
11893;SDS011;6006;49.696;8.662;2024-02-16T07:08:02;2.47;;;0.87;;
11893;SDS011;6006;49.696;8.662;2024-02-16T07:10:31;0.80;;;0.80;;
11893;SDS011;6006;49.696;8.662;2024-02-16T07:12:59;2.77;;;1.27;;
11893;SDS011;6006;49.696;8.662;2024-02-16T07:15:26;1.03;;;0.90;;
11893;SDS011;6006;49.696;8.662;2024-02-16T07:17:53;1.50;;;1.40;;
11893;SDS011;6006;49.696;8.662;2024-02-16T07:20:20;1.33;;;1.23;;
11893;SDS011;6006;49.696;8.662;2024-02-16T07:22:47;1.27;;;1.00;;
11893;SDS011;6006;49.696;8.662;2024-02-16T07:25:16;1.57;;;1.30;;
11893;SDS011;6006;49.696;8.662;2024-02-16T07:27:43;3.97;;;1.20;;
11893;SDS011;6006;49.696;8.662;2024-02-16T07:30:12;2.40;;;1.70;;
11893;SDS011;6006;49.696;8.662;2024-02-16T07:32:39;2.40;;;1.60;;
11893;SDS011;6006;49.696;8.662;2024-02-16T07:35:06;1.53;;;1.10;;
11893;SDS011;6006;49.696;8.662;2024-02-16T07:37:35;3.90;;;1.90;;
11893;SDS011;6006;49.696;8.662;2024-02-16T07:40:02;5.33;;;3.60;;
11893;SDS011;6006;49.696;8.662;2024-02-16T07:42:31;3.47;;;2.60;;
11893;SDS011;6006;49.696;8.662;2024-02-16T07:44:58;2.87;;;2.57;;
11893;SDS011;6006;49.696;8.662;2024-02-16T07:47:26;3.77;;;2.37;;
11893;SDS011;6006;49.696;8.662;2024-02-16T07:49:53;4.63;;;2.50;;
11893;SDS011;6006;49.696;8.662;2024-02-16T07:52:20;3.37;;;2.40;;
11893;SDS011;6006;49.696;8.662;2024-02-16T07:54:47;2.70;;;2.50;;
11893;SDS011;6006;49.696;8.662;2024-02-16T07:57:16;4.43;;;2.73;;
11893;SDS011;6006;49.696;8.662;2024-02-16T07:59:43;4.00;;;2.70;;
11893;SDS011;6006;49.696;8.662;2024-02-16T08:02:10;4.70;;;2.80;;
11893;SDS011;6006;49.696;8.662;2024-02-16T08:04:42;7.00;;;2.07;;
11893;SDS011;6006;49.696;8.662;2024-02-16T08:07:09;4.20;;;2.50;;
11893;SDS011;6006;49.696;8.662;2024-02-16T08:09:36;3.50;;;1.97;;
11893;SDS011;6006;49.696;8.662;2024-02-16T08:12:03;2.20;;;2.00;;
11893;SDS011;6006;49.696;8.662;2024-02-16T08:14:32;4.37;;;2.20;;
11893;SDS011;6006;49.696;8.662;2024-02-16T08:16:59;2.53;;;2.10;;
11893;SDS011;6006;49.696;8.662;2024-02-16T08:19:26;2.13;;;1.73;;
11893;SDS011;6006;49.696;8.662;2024-02-16T08:22:00;3.73;;;1.80;;
11893;SDS011;6006;49.696;8.662;2024-02-16T08:24:26;3.60;;;1.90;;
11893;SDS011;6006;49.696;8.662;2024-02-16T08:26:53;1.90;;;1.70;;
11893;SDS011;6006;49.696;8.662;2024-02-16T08:29:21;2.10;;;1.90;;
11893;SDS011;6006;49.696;8.662;2024-02-16T08:31:49;2.57;;;1.90;;
11893;SDS011;6006;49.696;8.662;2024-02-16T08:34:16;3.03;;;1.90;;
11893;SDS011;6006;49.696;8.662;2024-02-16T08:36:43;2.23;;;1.70;;
11893;SDS011;6006;49.696;8.662;2024-02-16T08:39:12;1.53;;;1.43;;
11893;SDS011;6006;49.696;8.662;2024-02-16T08:41:38;1.70;;;1.60;;
11893;SDS011;6006;49.696;8.662;2024-02-16T08:44:05;2.40;;;1.60;;
11893;SDS011;6006;49.696;8.662;2024-02-16T08:46:34;4.27;;;1.87;;
11893;SDS011;6006;49.696;8.662;2024-02-16T08:49:01;3.40;;;1.77;;
11893;SDS011;6006;49.696;8.662;2024-02-16T08:51:28;1.70;;;1.60;;
11893;SDS011;6006;49.696;8.662;2024-02-16T08:53:57;5.77;;;2.00;;
11893;SDS011;6006;49.696;8.662;2024-02-16T08:56:25;2.53;;;1.70;;
11893;SDS011;6006;49.696;8.662;2024-02-16T08:58:53;2.20;;;1.77;;
11893;SDS011;6006;49.696;8.662;2024-02-16T09:01:29;2.73;;;1.90;;
11893;SDS011;6006;49.696;8.662;2024-02-16T09:03:56;3.03;;;2.10;;
11893;SDS011;6006;49.696;8.662;2024-02-16T09:06:23;1.77;;;1.67;;
11893;SDS011;6006;49.696;8.662;2024-02-16T09:08:50;3.23;;;1.80;;
11893;SDS011;6006;49.696;8.662;2024-02-16T09:11:17;1.77;;;1.67;;
11893;SDS011;6006;49.696;8.662;2024-02-16T09:13:45;3.53;;;1.73;;
11893;SDS011;6006;49.696;8.662;2024-02-16T09:16:13;3.53;;;2.07;;
11893;SDS011;6006;49.696;8.662;2024-02-16T09:18:40;3.97;;;2.40;;
11893;SDS011;6006;49.696;8.662;2024-02-16T09:21:07;3.77;;;2.00;;
11893;SDS011;6006;49.696;8.662;2024-02-16T09:23:35;2.90;;;1.80;;
11893;SDS011;6006;49.696;8.662;2024-02-16T09:26:02;2.03;;;1.83;;
11893;SDS011;6006;49.696;8.662;2024-02-16T09:28:29;2.73;;;1.80;;
11893;SDS011;6006;49.696;8.662;2024-02-16T09:30:58;2.30;;;1.73;;
11893;SDS011;6006;49.696;8.662;2024-02-16T09:33:25;2.57;;;1.80;;
11893;SDS011;6006;49.696;8.662;2024-02-16T09:35:53;2.10;;;1.87;;
11893;SDS011;6006;49.696;8.662;2024-02-16T09:38:20;2.43;;;2.07;;
11893;SDS011;6006;49.696;8.662;2024-02-16T09:40:47;2.30;;;1.60;;
11893;SDS011;6006;49.696;8.662;2024-02-16T09:43:23;2.30;;;1.85;;
11893;SDS011;6006;49.696;8.662;2024-02-16T09:45:52;2.13;;;1.90;;
11893;SDS011;6006;49.696;8.662;2024-02-16T09:48:22;2.17;;;1.95;;
11893;SDS011;6006;49.696;8.662;2024-02-16T09:50:49;1.73;;;1.63;;
11893;SDS011;6006;49.696;8.662;2024-02-16T09:53:17;3.23;;;2.27;;
11893;SDS011;6006;49.696;8.662;2024-02-16T09:55:46;2.13;;;1.70;;
11893;SDS011;6006;49.696;8.662;2024-02-16T09:58:15;1.97;;;1.73;;
11893;SDS011;6006;49.696;8.662;2024-02-16T10:00:47;2.25;;;2.05;;
11893;SDS011;6006;49.696;8.662;2024-02-16T10:03:23;3.63;;;2.00;;
11893;SDS011;6006;49.696;8.662;2024-02-16T10:05:50;2.70;;;1.92;;
11893;SDS011;6006;49.696;8.662;2024-02-16T10:08:17;3.65;;;1.80;;
11893;SDS011;6006;49.696;8.662;2024-02-16T10:10:45;3.13;;;1.90;;
11893;SDS011;6006;49.696;8.662;2024-02-16T10:13:12;3.38;;;1.90;;
11893;SDS011;6006;49.696;8.662;2024-02-16T10:15:39;1.80;;;1.70;;
11893;SDS011;6006;49.696;8.662;2024-02-16T10:18:06;2.72;;;1.77;;
11893;SDS011;6006;49.696;8.662;2024-02-16T10:20:35;3.28;;;2.08;;
11893;SDS011;6006;49.696;8.662;2024-02-16T10:23:07;3.05;;;2.15;;
11893;SDS011;6006;49.696;8.662;2024-02-16T10:25:35;2.40;;;2.08;;
11893;SDS011;6006;49.696;8.662;2024-02-16T10:28:04;2.10;;;1.90;;
11893;SDS011;6006;49.696;8.662;2024-02-16T10:30:34;3.92;;;2.10;;
11893;SDS011;6006;49.696;8.662;2024-02-16T10:33:03;3.40;;;1.70;;
11893;SDS011;6006;49.696;8.662;2024-02-16T10:35:32;2.08;;;1.98;;
11893;SDS011;6006;49.696;8.662;2024-02-16T10:38:02;4.20;;;1.90;;
11893;SDS011;6006;49.696;8.662;2024-02-16T10:40:32;3.08;;;1.80;;
11893;SDS011;6006;49.696;8.662;2024-02-16T10:43:00;2.33;;;1.80;;
11893;SDS011;6006;49.696;8.662;2024-02-16T10:45:31;1.95;;;1.85;;
11893;SDS011;6006;49.696;8.662;2024-02-16T10:48:00;2.72;;;2.00;;
11893;SDS011;6006;49.696;8.662;2024-02-16T10:50:28;4.30;;;2.15;;
11893;SDS011;6006;49.696;8.662;2024-02-16T10:52:57;3.15;;;1.77;;
11893;SDS011;6006;49.696;8.662;2024-02-16T10:55:30;1.98;;;1.75;;
11893;SDS011;6006;49.696;8.662;2024-02-16T10:57:57;4.13;;;1.95;;
11893;SDS011;6006;49.696;8.662;2024-02-16T11:00:25;2.55;;;2.10;;
11893;SDS011;6006;49.696;8.662;2024-02-16T11:02:53;3.10;;;1.65;;
11893;SDS011;6006;49.696;8.662;2024-02-16T11:05:31;2.03;;;1.73;;
11893;SDS011;6006;49.696;8.662;2024-02-16T11:08:04;1.70;;;1.60;;
11893;SDS011;6006;49.696;8.662;2024-02-16T11:10:38;4.28;;;1.98;;
11893;SDS011;6006;49.696;8.662;2024-02-16T11:13:05;2.03;;;1.80;;
11893;SDS011;6006;49.696;8.662;2024-02-16T11:15:33;2.03;;;1.80;;
11893;SDS011;6006;49.696;8.662;2024-02-16T11:18:01;2.28;;;2.03;;
11893;SDS011;6006;49.696;8.662;2024-02-16T11:20:29;2.13;;;1.80;;
11893;SDS011;6006;49.696;8.662;2024-02-16T11:23:08;2.45;;;2.20;;
11893;SDS011;6006;49.696;8.662;2024-02-16T11:25:35;3.92;;;2.47;;
11893;SDS011;6006;49.696;8.662;2024-02-16T11:28:03;2.67;;;2.17;;
11893;SDS011;6006;49.696;8.662;2024-02-16T11:30:32;2.70;;;2.20;;
11893;SDS011;6006;49.696;8.662;2024-02-16T11:33:00;4.53;;;2.05;;
11893;SDS011;6006;49.696;8.662;2024-02-16T11:35:27;2.10;;;1.90;;
11893;SDS011;6006;49.696;8.662;2024-02-16T11:37:55;2.67;;;1.98;;
11893;SDS011;6006;49.696;8.662;2024-02-16T11:40:24;5.65;;;2.75;;
11893;SDS011;6006;49.696;8.662;2024-02-16T11:42:57;4.20;;;2.20;;
11893;SDS011;6006;49.696;8.662;2024-02-16T11:45:24;2.33;;;2.00;;
11893;SDS011;6006;49.696;8.662;2024-02-16T11:47:51;2.90;;;2.20;;
11893;SDS011;6006;49.696;8.662;2024-02-16T11:50:28;2.35;;;2.15;;
11893;SDS011;6006;49.696;8.662;2024-02-16T11:52:55;4.57;;;2.22;;
11893;SDS011;6006;49.696;8.662;2024-02-16T11:55:30;3.97;;;2.55;;
11893;SDS011;6006;49.696;8.662;2024-02-16T11:57:59;2.15;;;1.92;;
11893;SDS011;6006;49.696;8.662;2024-02-16T12:00:27;2.38;;;1.67;;
11893;SDS011;6006;49.696;8.662;2024-02-16T12:03:00;2.55;;;1.73;;
11893;SDS011;6006;49.696;8.662;2024-02-16T12:05:28;3.45;;;1.70;;
11893;SDS011;6006;49.696;8.662;2024-02-16T12:07:57;1.65;;;1.50;;
11893;SDS011;6006;49.696;8.662;2024-02-16T12:10:24;3.55;;;1.95;;
11893;SDS011;6006;49.696;8.662;2024-02-16T12:12:53;2.92;;;1.67;;
11893;SDS011;6006;49.696;8.662;2024-02-16T12:15:21;2.22;;;1.52;;
11893;SDS011;6006;49.696;8.662;2024-02-16T12:17:57;1.30;;;1.20;;
11893;SDS011;6006;49.696;8.662;2024-02-16T12:20:25;2.83;;;1.60;;
11893;SDS011;6006;49.696;8.662;2024-02-16T12:22:51;1.98;;;1.10;;
11893;SDS011;6006;49.696;8.662;2024-02-16T12:25:18;3.40;;;0.93;;
11893;SDS011;6006;49.696;8.662;2024-02-16T12:27:45;4.50;;;1.50;;
11893;SDS011;6006;49.696;8.662;2024-02-16T12:30:14;1.88;;;1.13;;
11893;SDS011;6006;49.696;8.662;2024-02-16T12:32:41;2.20;;;1.15;;
11893;SDS011;6006;49.696;8.662;2024-02-16T12:35:08;1.52;;;1.17;;
11893;SDS011;6006;49.696;8.662;2024-02-16T12:37:35;1.75;;;1.30;;
11893;SDS011;6006;49.696;8.662;2024-02-16T12:40:02;2.35;;;1.20;;
11893;SDS011;6006;49.696;8.662;2024-02-16T12:42:31;1.42;;;1.00;;
11893;SDS011;6006;49.696;8.662;2024-02-16T12:44:58;1.10;;;1.00;;
11893;SDS011;6006;49.696;8.662;2024-02-16T12:47:27;3.80;;;1.63;;
11893;SDS011;6006;49.696;8.662;2024-02-16T12:49:55;1.77;;;1.23;;
11893;SDS011;6006;49.696;8.662;2024-02-16T12:52:23;2.28;;;1.20;;
11893;SDS011;6006;49.696;8.662;2024-02-16T12:54:51;5.35;;;1.20;;
11893;SDS011;6006;49.696;8.662;2024-02-16T12:57:19;1.75;;;1.00;;
11893;SDS011;6006;49.696;8.662;2024-02-16T12:59:45;1.00;;;1.00;;
11893;SDS011;6006;49.696;8.662;2024-02-16T13:02:12;1.63;;;1.17;;
11893;SDS011;6006;49.696;8.662;2024-02-16T13:04:41;1.13;;;0.90;;
11893;SDS011;6006;49.696;8.662;2024-02-16T13:07:07;1.80;;;1.17;;
11893;SDS011;6006;49.696;8.662;2024-02-16T13:09:34;1.60;;;1.10;;
11893;SDS011;6006;49.696;8.662;2024-02-16T13:12:02;2.67;;;1.30;;
11893;SDS011;6006;49.696;8.662;2024-02-16T13:14:29;1.27;;;1.13;;
11893;SDS011;6006;49.696;8.662;2024-02-16T13:16:56;4.90;;;1.48;;
11893;SDS011;6006;49.696;8.662;2024-02-16T13:19:23;2.63;;;1.40;;
11893;SDS011;6006;49.696;8.662;2024-02-16T13:21:52;1.77;;;1.40;;
11893;SDS011;6006;49.696;8.662;2024-02-16T13:24:19;2.90;;;1.20;;
11893;SDS011;6006;49.696;8.662;2024-02-16T13:26:45;1.00;;;0.90;;
11893;SDS011;6006;49.696;8.662;2024-02-16T13:29:12;3.30;;;1.30;;
11893;SDS011;6006;49.696;8.662;2024-02-16T13:31:39;1.58;;;1.30;;
11893;SDS011;6006;49.696;8.662;2024-02-16T13:34:07;2.28;;;1.23;;
11893;SDS011;6006;49.696;8.662;2024-02-16T13:36:34;1.08;;;0.85;;
11893;SDS011;6006;49.696;8.662;2024-02-16T13:39:03;3.22;;;1.55;;
11893;SDS011;6006;49.696;8.662;2024-02-16T13:41:30;1.13;;;0.98;;
11893;SDS011;6006;49.696;8.662;2024-02-16T13:43:58;2.53;;;1.02;;
11893;SDS011;6006;49.696;8.662;2024-02-16T13:46:24;1.50;;;1.38;;
11893;SDS011;6006;49.696;8.662;2024-02-16T13:48:51;1.60;;;1.30;;
11893;SDS011;6006;49.696;8.662;2024-02-16T13:51:18;3.28;;;1.50;;
11893;SDS011;6006;49.696;8.662;2024-02-16T13:53:45;2.33;;;1.23;;
11893;SDS011;6006;49.696;8.662;2024-02-16T13:56:13;4.47;;;1.65;;
11893;SDS011;6006;49.696;8.662;2024-02-16T13:58:40;1.70;;;1.25;;
11893;SDS011;6006;49.696;8.662;2024-02-16T14:01:07;5.03;;;1.35;;
11893;SDS011;6006;49.696;8.662;2024-02-16T14:03:34;1.98;;;1.40;;
11893;SDS011;6006;49.696;8.662;2024-02-16T14:06:02;4.00;;;1.05;;
11893;SDS011;6006;49.696;8.662;2024-02-16T14:08:30;2.92;;;1.40;;
11893;SDS011;6006;49.696;8.662;2024-02-16T14:10:57;1.15;;;1.00;;
11893;SDS011;6006;49.696;8.662;2024-02-16T14:13:26;1.45;;;1.13;;
11893;SDS011;6006;49.696;8.662;2024-02-16T14:15:53;2.60;;;1.15;;
11893;SDS011;6006;49.696;8.662;2024-02-16T14:18:21;1.50;;;1.10;;
11893;SDS011;6006;49.696;8.662;2024-02-16T14:20:48;1.80;;;1.00;;
11893;SDS011;6006;49.696;8.662;2024-02-16T14:23:15;2.80;;;1.40;;
11893;SDS011;6006;49.696;8.662;2024-02-16T14:25:42;1.15;;;1.05;;
11893;SDS011;6006;49.696;8.662;2024-02-16T14:28:10;3.40;;;1.60;;
11893;SDS011;6006;49.696;8.662;2024-02-16T14:30:44;0.93;;;0.93;;
11893;SDS011;6006;49.696;8.662;2024-02-16T14:33:12;2.10;;;0.98;;
11893;SDS011;6006;49.696;8.662;2024-02-16T14:35:42;1.65;;;0.93;;
11893;SDS011;6006;49.696;8.662;2024-02-16T14:38:08;2.63;;;0.80;;
11893;SDS011;6006;49.696;8.662;2024-02-16T14:40:35;1.10;;;1.00;;
11893;SDS011;6006;49.696;8.662;2024-02-16T14:43:03;2.30;;;1.00;;
11893;SDS011;6006;49.696;8.662;2024-02-16T14:45:32;1.23;;;1.00;;
11893;SDS011;6006;49.696;8.662;2024-02-16T14:48:00;1.63;;;0.77;;
11893;SDS011;6006;49.696;8.662;2024-02-16T14:50:27;1.75;;;1.00;;
11893;SDS011;6006;49.696;8.662;2024-02-16T14:52:54;4.38;;;1.80;;
11893;SDS011;6006;49.696;8.662;2024-02-16T14:55:22;2.53;;;1.20;;
11893;SDS011;6006;49.696;8.662;2024-02-16T14:57:49;1.20;;;1.10;;
11893;SDS011;6006;49.696;8.662;2024-02-16T15:00:17;2.80;;;1.30;;
11893;SDS011;6006;49.696;8.662;2024-02-16T15:02:45;1.95;;;1.10;;
11893;SDS011;6006;49.696;8.662;2024-02-16T15:05:14;1.30;;;0.80;;